Time;durP1;ratioP1;P1;durP2;ratioP2;P2;SDS_P1;SDS_P2;PMS_P1;PMS_P2;Temp;Humidity;BMP_temperature;BMP_pressure;BME280_temperature;BME280_humidity;BME280_pressure;Samples;Min_cycle;Max_cycle;Signal;HPM_P1;HPM_P2
2023/09/29 00:01:39;;;;;;;19.85;5.93;;;15.90;99.90;;;;;;4987871;28;20103;-86
2023/09/29 00:04:06;;;;;;;17.02;7.18;;;14.70;99.90;;;;;;4986976;28;20573;-87
2023/09/29 00:06:33;;;;;;;21.23;6.88;;;14.70;99.90;;;;;;4985301;28;20041;-87
2023/09/29 00:09:01;;;;;;;17.50;6.30;;;13.20;99.90;;;;;;4986279;28;20053;-87
2023/09/29 00:11:30;;;;;;;22.20;6.72;;;14.60;99.90;;;;;;5004390;28;20075;-86
2023/09/29 00:13:56;;;;;;;24.10;7.18;;;14.80;99.90;;;;;;4986274;28;20038;-86
2023/09/29 00:16:22;;;;;;;24.80;7.03;;;14.60;99.90;;;;;;4987256;28;20075;-87
2023/09/29 00:18:48;;;;;;;22.85;6.75;;;15.00;99.90;;;;;;5000642;28;20046;-86
2023/09/29 00:21:13;;;;;;;23.20;6.47;;;16.20;99.90;;;;;;4987282;28;20536;-85
2023/09/29 00:23:39;;;;;;;26.85;7.38;;;14.50;99.90;;;;;;4992695;28;20048;-88
2023/09/29 00:26:05;;;;;;;22.15;6.85;;;14.70;99.90;;;;;;4987672;28;20124;-87
2023/09/29 00:28:32;;;;;;;23.90;7.25;;;14.60;99.90;;;;;;4982678;28;20068;-86
2023/09/29 00:30:59;;;;;;;24.08;6.90;;;15.10;99.90;;;;;;4987587;28;20345;-87
2023/09/29 00:33:28;;;;;;;26.15;7.90;;;14.60;99.90;;;;;;4982804;28;20057;-88
2023/09/29 00:35:54;;;;;;;23.15;7.38;;;14.60;99.90;;;;;;4985722;28;20057;-87
2023/09/29 00:38:19;;;;;;;27.65;8.48;;;14.80;99.90;;;;;;4987031;28;20698;-88
2023/09/29 00:40:45;;;;;;;16.30;6.47;;;14.70;99.90;;;;;;5003455;28;20210;-87
2023/09/29 00:43:11;;;;;;;21.17;6.82;;;14.70;99.90;;;;;;4987148;28;20563;-87
2023/09/29 00:45:37;;;;;;;19.77;6.75;;;14.70;99.90;;;;;;4986782;28;20029;-87
2023/09/29 00:48:08;;;;;;;20.55;6.18;;;14.90;99.90;;;;;;4985087;28;20078;-87
2023/09/29 00:50:36;;;;;;;21.50;6.93;;;14.80;99.90;;;;;;4988489;28;20152;-88
2023/09/29 00:53:07;;;;;;;18.33;7.15;;;14.80;99.90;;;;;;5004707;28;20937;-89
2023/09/29 00:55:35;;;;;;;19.02;6.47;;;14.80;99.90;;;;;;5004242;28;20072;-88
2023/09/29 00:58:06;;;;;;;23.38;7.93;;;14.80;99.90;;;;;;5003943;28;20045;-87
2023/09/29 01:00:40;;;;;;;21.13;6.57;;;13.60;99.90;;;;;;4984830;28;20692;-87
2023/09/29 01:03:12;;;;;;;26.30;7.63;;;14.90;99.90;;;;;;4983725;28;20053;-87
2023/09/29 01:05:46;;;;;;;19.50;6.82;;;15.00;99.90;;;;;;4985894;28;20045;-86
2023/09/29 01:08:19;;;;;;;20.95;6.47;;;14.90;99.90;;;;;;4987904;28;20056;-87
2023/09/29 01:10:45;;;;;;;22.75;6.65;;;15.40;99.90;;;;;;4987012;28;20049;-85
2023/09/29 01:13:12;;;;;;;21.25;6.68;;;14.90;99.90;;;;;;5004143;28;20060;-86
2023/09/29 01:15:39;;;;;;;21.08;8.45;;;14.80;99.90;;;;;;4987190;28;20756;-87
2023/09/29 01:18:11;;;;;;;18.98;6.70;;;14.90;99.90;;;;;;4982090;28;20046;-87
2023/09/29 01:20:46;;;;;;;21.50;7.28;;;14.80;99.90;;;;;;4984696;28;20041;-87
2023/09/29 01:23:11;;;;;;;24.00;6.70;;;14.80;99.90;;;;;;4987777;28;20037;-87
2023/09/29 01:25:41;;;;;;;21.55;7.57;;;14.90;99.90;;;;;;5003354;28;20045;-87
2023/09/29 01:28:13;;;;;;;19.45;6.53;;;14.70;99.90;;;;;;4984481;28;20077;-86
2023/09/29 01:30:45;;;;;;;22.40;7.05;;;14.60;99.90;;;;;;4985518;28;20042;-88
2023/09/29 01:33:14;;;;;;;;;;;14.70;99.90;;;;;;4982595;28;20073;-87
2023/09/29 01:35:43;;;;;;;23.23;8.50;;;14.50;99.90;;;;;;5002479;28;19932;-87
2023/09/29 01:38:09;;;;;;;18.52;7.80;;;14.70;99.90;;;;;;5003913;28;20050;-87
2023/09/29 01:40:34;;;;;;;19.58;6.45;;;14.70;99.90;;;;;;4975977;28;20040;-87
2023/09/29 01:43:00;;;;;;;16.60;7.05;;;14.70;99.90;;;;;;5003136;28;20815;-86
2023/09/29 01:45:26;;;;;;;20.00;6.93;;;14.70;99.90;;;;;;4986913;28;20045;-86
2023/09/29 01:47:53;;;;;;;21.38;6.95;;;14.70;99.90;;;;;;4987135;28;20041;-87
2023/09/29 01:50:20;;;;;;;16.10;5.88;;;14.70;99.90;;;;;;4981347;28;20533;-87
2023/09/29 01:52:47;;;;;;;22.20;7.32;;;14.80;99.90;;;;;;4988737;28;20041;-88
2023/09/29 01:55:21;;;;;;;19.33;7.30;;;14.90;99.90;;;;;;4982859;28;20042;-87
2023/09/29 01:57:47;;;;;;;23.25;6.65;;;14.80;99.90;;;;;;5001657;28;20120;-88
2023/09/29 02:00:28;;;;;;;14.73;7.10;;;14.80;99.90;;;;;;4972662;28;20169;-86
2023/09/29 02:02:55;;;;;;;23.92;6.35;;;12.50;99.90;;;;;;5001005;28;20084;-87
2023/09/29 02:05:24;;;;;;;19.35;5.85;;;14.70;99.90;;;;;;5002948;28;20052;-88
2023/09/29 02:07:52;;;;;;;24.27;6.38;;;14.80;99.90;;;;;;4986111;28;20042;-88
2023/09/29 02:10:29;;;;;;;27.17;6.60;;;14.80;99.90;;;;;;4982480;28;20052;-87
2023/09/29 02:12:57;;;;;;;20.55;6.63;;;15.40;99.90;;;;;;4985688;28;20077;-86
2023/09/29 02:15:24;;;;;;;20.80;8.07;;;14.90;99.90;;;;;;4984336;28;20041;-87
2023/09/29 02:17:50;;;;;;;24.10;5.85;;;14.90;99.90;;;;;;4982416;28;20201;-87
2023/09/29 02:20:33;;;;;;;18.55;6.13;;;14.90;99.90;;;;;;4985302;28;20061;-87
2023/09/29 02:23:00;;;;;;;16.67;5.88;;;14.90;99.90;;;;;;4976680;28;20640;-87
2023/09/29 02:25:26;;;;;;;22.30;5.68;;;15.00;99.90;;;;;;4988140;28;20867;-87
2023/09/29 02:27:54;;;;;;;18.52;6.00;;;15.00;99.90;;;;;;4989805;28;20087;-85
2023/09/29 02:30:20;;;;;;;15.57;5.88;;;15.00;99.90;;;;;;4989151;28;20494;-88
2023/09/29 02:32:46;;;;;;;16.85;5.60;;;15.00;99.90;;;;;;4987654;28;20045;-86
2023/09/29 02:35:12;;;;;;;23.27;6.55;;;15.00;99.90;;;;;;4987967;28;20053;-87
2023/09/29 02:37:38;;;;;;;21.92;5.35;;;15.00;99.90;;;;;;4990487;28;20546;-87
2023/09/29 02:40:11;;;;;;;21.88;6.10;;;15.10;99.90;;;;;;5006971;28;20491;-87
2023/09/29 02:42:38;;;;;;;17.80;5.97;;;12.60;99.90;;;;;;4984863;28;20084;-87
2023/09/29 02:45:05;;;;;;;14.50;5.10;;;15.10;99.90;;;;;;4988207;28;20034;-87
2023/09/29 02:47:39;;;;;;;19.20;5.28;;;15.00;99.90;;;;;;4989359;28;20073;-86
2023/09/29 02:50:07;;;;;;;20.75;6.03;;;15.80;99.90;;;;;;4990031;28;20060;-88
2023/09/29 02:52:33;;;;;;;22.73;6.57;;;15.10;99.90;;;;;;4988017;28;20051;-86
2023/09/29 02:54:59;;;;;;;22.98;5.80;;;15.10;99.90;;;;;;4986583;28;20269;-88
2023/09/29 02:57:24;;;;;;;18.23;6.45;;;15.10;99.90;;;;;;5003629;28;20471;-87
2023/09/29 02:59:50;;;;;;;13.82;5.47;;;15.10;99.90;;;;;;4989996;28;20817;-87
2023/09/29 03:02:16;;;;;;;20.55;6.28;;;15.10;99.90;;;;;;5004996;28;20110;-86
2023/09/29 03:04:43;;;;;;;18.08;5.85;;;15.20;99.90;;;;;;4986748;28;20041;-85
2023/09/29 03:07:09;;;;;;;18.02;6.38;;;15.10;99.90;;;;;;4988155;28;20125;-87
2023/09/29 03:09:36;;;;;;;24.95;6.35;;;15.10;99.90;;;;;;4987900;28;20045;-87
2023/09/29 03:12:03;;;;;;;17.35;6.00;;;15.10;99.90;;;;;;4988172;28;20048;-87
2023/09/29 03:14:29;;;;;;;24.80;7.65;;;15.10;99.90;;;;;;4985958;28;20050;-88
2023/09/29 03:17:00;;;;;;;15.05;6.13;;;15.20;99.90;;;;;;5004114;28;20056;-86
2023/09/29 03:19:27;;;;;;;20.52;6.22;;;15.10;99.90;;;;;;4985435;28;20049;-87
2023/09/29 03:21:53;;;;;;;13.63;6.50;;;15.10;99.90;;;;;;4987191;28;20045;-88
2023/09/29 03:24:19;;;;;;;19.65;6.80;;;15.10;99.90;;;;;;4989786;28;20570;-87
2023/09/29 03:26:45;;;;;;;15.23;6.18;;;15.60;99.90;;;;;;4987259;28;20046;-87
2023/09/29 03:29:11;;;;;;;19.90;6.70;;;15.10;99.90;;;;;;4988109;28;20050;-87
2023/09/29 03:31:36;;;;;;;17.88;7.18;;;15.20;99.90;;;;;;4985603;28;20128;-87
2023/09/29 03:34:05;;;;;;;25.15;7.32;;;15.20;99.90;;;;;;4987953;28;20143;-86
2023/09/29 03:36:31;;;;;;;22.13;7.85;;;15.20;99.90;;;;;;4986188;28;20642;-87
2023/09/29 03:38:59;;;;;;;18.63;6.65;;;15.10;99.90;;;;;;4991307;28;20045;-86
2023/09/29 03:41:24;;;;;;;24.77;8.85;;;15.10;99.90;;;;;;5008007;28;20665;-87
2023/09/29 03:43:52;;;;;;;14.75;6.15;;;15.10;99.90;;;;;;4990040;28;20120;-88
2023/09/29 03:46:21;;;;;;;16.85;7.15;;;15.40;99.90;;;;;;4993979;28;20029;-87
2023/09/29 03:48:49;;;;;;;16.80;6.68;;;15.10;99.90;;;;;;4991413;28;20129;-88
2023/09/29 03:51:24;;;;;;;18.83;7.53;;;15.10;99.90;;;;;;4993112;28;20045;-87
2023/09/29 03:53:52;;;;;;;19.08;7.68;;;15.10;99.90;;;;;;4993442;28;20431;-87
2023/09/29 03:56:22;;;;;;;16.58;7.45;;;14.80;99.90;;;;;;5009102;28;20045;-87
2023/09/29 03:58:49;;;;;;;23.70;8.10;;;15.10;99.90;;;;;;4987647;28;20061;-89
2023/09/29 04:01:16;;;;;;;22.15;8.15;;;15.20;99.90;;;;;;4991702;28;20122;-88
2023/09/29 04:03:42;;;;;;;20.55;9.05;;;15.10;99.90;;;;;;4991703;28;20077;-89
2023/09/29 04:06:08;;;;;;;20.05;8.82;;;16.50;99.90;;;;;;4990194;28;20045;-86
2023/09/29 04:08:34;;;;;;;23.13;8.75;;;15.40;99.90;;;;;;4991815;28;20148;-87
2023/09/29 04:11:00;;;;;;;18.88;8.45;;;15.20;99.90;;;;;;4989368;28;20136;-88
2023/09/29 04:13:29;;;;;;;20.42;8.45;;;15.20;99.90;;;;;;4990245;28;20075;-88
2023/09/29 04:16:03;;;;;;;21.67;9.15;;;13.20;99.90;;;;;;4990802;28;20045;-87
2023/09/29 04:18:29;;;;;;;20.05;8.05;;;15.20;99.90;;;;;;5005301;28;20056;-87
2023/09/29 04:20:55;;;;;;;20.65;9.52;;;15.30;99.90;;;;;;4991542;28;20781;-87
2023/09/29 04:23:20;;;;;;;26.65;9.90;;;15.60;99.90;;;;;;4992370;28;20052;-90
2023/09/29 04:25:46;;;;;;;22.00;9.80;;;16.00;99.90;;;;;;5004072;28;20072;-88
2023/09/29 04:28:13;;;;;;;24.17;9.85;;;15.50;99.90;;;;;;4985404;28;20241;-85
2023/09/29 04:30:38;;;;;;;23.85;10.85;;;15.40;99.90;;;;;;5005602;28;20080;-87
2023/09/29 04:33:04;;;;;;;23.23;10.80;;;15.40;99.90;;;;;;4989574;28;20111;-87
2023/09/29 04:35:38;;;;;;;25.67;11.13;;;15.40;99.90;;;;;;4987693;28;20068;-89
2023/09/29 04:38:04;;;;;;;25.15;11.52;;;15.60;99.90;;;;;;4983084;28;20053;-87
2023/09/29 04:40:30;;;;;;;22.35;10.75;;;15.70;99.90;;;;;;4988471;28;20084;-87
2023/09/29 04:42:55;;;;;;;20.60;10.95;;;14.50;99.90;;;;;;4983448;28;20080;-87
2023/09/29 04:45:21;;;;;;;24.65;10.65;;;15.50;99.90;;;;;;5001327;28;20103;-87
2023/09/29 04:47:47;;;;;;;23.25;11.07;;;15.60;99.90;;;;;;5003649;28;20312;-87
2023/09/29 04:50:14;;;;;;;18.83;10.88;;;15.60;99.90;;;;;;4987434;28;20045;-88
2023/09/29 04:52:39;;;;;;;21.33;10.23;;;15.70;99.90;;;;;;5003225;28;20041;-87
2023/09/29 04:55:08;;;;;;;24.88;11.07;;;15.60;99.90;;;;;;4989902;28;20096;-87
2023/09/29 04:57:34;;;;;;;17.90;9.85;;;15.60;99.90;;;;;;4984997;28;20033;-88
2023/09/29 05:00:00;;;;;;;19.75;9.88;;;15.70;99.90;;;;;;4986955;28;20625;-88
2023/09/29 05:02:29;;;;;;;17.10;9.05;;;15.90;99.90;;;;;;4984462;28;20049;-87
2023/09/29 05:04:55;;;;;;;19.35;10.48;;;16.20;99.90;;;;;;4982032;28;20048;-88
2023/09/29 05:07:21;;;;;;;21.65;9.63;;;15.70;99.90;;;;;;4987614;28;20790;-88
2023/09/29 05:09:47;;;;;;;22.25;10.80;;;15.70;99.90;;;;;;4982307;28;20053;-87
2023/09/29 05:12:16;;;;;;;19.05;10.32;;;15.70;99.90;;;;;;4986443;28;20049;-88
2023/09/29 05:14:45;;;;;;;15.20;9.75;;;15.90;99.90;;;;;;4984265;28;20143;-87
2023/09/29 05:17:11;;;;;;;21.48;10.07;;;15.80;99.90;;;;;;4979185;28;20616;-87
2023/09/29 05:19:40;;;;;;;18.70;10.00;;;15.80;99.90;;;;;;4987202;28;20203;-86
2023/09/29 05:22:06;;;;;;;17.90;10.48;;;12.90;99.90;;;;;;5003922;28;20049;-87
2023/09/29 05:24:33;;;;;;;20.38;11.05;;;15.80;99.90;;;;;;4988112;28;20042;-87
2023/09/29 05:26:59;;;;;;;20.52;9.75;;;15.80;99.90;;;;;;4987335;28;20042;-85
2023/09/29 05:29:25;;;;;;;17.65;10.32;;;16.10;99.90;;;;;;4986108;28;20042;-87
2023/09/29 05:31:50;;;;;;;22.15;10.93;;;15.90;99.90;;;;;;4979238;28;20049;-87
2023/09/29 05:34:20;;;;;;;18.45;10.73;;;15.90;99.90;;;;;;4994886;28;20057;-88
2023/09/29 05:36:52;;;;;;;19.88;10.35;;;14.10;99.90;;;;;;4983749;28;20395;-87
2023/09/29 05:39:21;;;;;;;21.98;11.38;;;16.40;99.90;;;;;;4986627;28;20077;-86
2023/09/29 05:41:46;;;;;;;24.05;10.60;;;16.00;99.90;;;;;;4986873;28;20037;-87
2023/09/29 05:44:12;;;;;;;26.60;10.50;;;15.90;99.90;;;;;;4986997;28;20048;-86
2023/09/29 05:46:38;;;;;;;19.73;9.68;;;15.90;99.90;;;;;;4987141;28;20052;-88
2023/09/29 05:49:03;;;;;;;18.75;10.18;;;15.90;99.90;;;;;;4987067;28;20107;-87
2023/09/29 05:51:29;;;;;;;24.13;10.50;;;15.90;99.90;;;;;;4989852;28;20041;-87
2023/09/29 05:53:55;;;;;;;21.15;10.98;;;15.60;99.90;;;;;;5006670;28;20402;-89
2023/09/29 05:56:21;;;;;;;19.48;10.18;;;16.00;99.90;;;;;;5008204;28;20048;-86
2023/09/29 05:58:46;;;;;;;22.17;10.48;;;15.90;99.90;;;;;;4986807;28;20116;-89
2023/09/29 06:01:14;;;;;;;18.42;10.20;;;15.90;99.90;;;;;;5002583;28;20048;-88
2023/09/29 06:03:40;;;;;;;17.90;10.25;;;15.90;99.90;;;;;;4999317;28;20120;-88
2023/09/29 06:06:09;;;;;;;18.25;10.20;;;16.00;99.90;;;;;;4988809;28;20515;-86
2023/09/29 06:08:36;;;;;;;18.60;10.45;;;16.00;99.90;;;;;;5006039;28;20056;-89
2023/09/29 06:11:03;;;;;;;17.38;11.02;;;15.90;99.90;;;;;;4987154;28;20061;-88
2023/09/29 06:13:29;;;;;;;21.02;10.90;;;15.90;99.90;;;;;;5005452;28;20045;-86
2023/09/29 06:15:56;;;;;;;23.38;10.60;;;15.90;99.90;;;;;;5004299;28;20076;-87
2023/09/29 06:18:22;;;;;;;20.20;10.23;;;15.90;99.90;;;;;;4986269;28;20160;-87
2023/09/29 06:20:47;;;;;;;23.65;11.82;;;15.90;99.90;;;;;;5005856;28;20097;-89
2023/09/29 06:23:14;;;;;;;16.40;9.48;;;16.00;99.90;;;;;;4988976;28;20073;-88
2023/09/29 06:25:39;;;;;;;20.05;10.63;;;16.00;99.90;;;;;;4983047;28;20049;-86
2023/09/29 06:28:05;;;;;;;20.38;9.77;;;16.00;99.90;;;;;;4988378;28;20042;-88
2023/09/29 06:30:31;;;;;;;17.02;11.48;;;16.00;99.90;;;;;;4987431;28;20072;-87
2023/09/29 06:32:57;;;;;;;15.10;9.65;;;16.10;99.90;;;;;;4990311;28;20468;-89
2023/09/29 06:35:22;;;;;;;21.95;9.90;;;16.10;99.90;;;;;;4983001;28;20100;-87
2023/09/29 06:37:48;;;;;;;15.45;9.63;;;16.10;99.90;;;;;;4982282;28;20046;-87
2023/09/29 06:40:14;;;;;;;15.10;8.63;;;16.10;99.90;;;;;;4980576;28;20119;-89
2023/09/29 06:42:40;;;;;;;16.67;9.00;;;16.10;99.90;;;;;;4988474;28;20132;-89
2023/09/29 06:45:09;;;;;;;15.77;9.00;;;16.10;99.90;;;;;;5005247;28;20163;-88
2023/09/29 06:47:35;;;;;;;18.23;8.80;;;16.20;99.90;;;;;;5008206;28;20537;-88
2023/09/29 06:50:01;;;;;;;19.50;9.38;;;16.10;99.90;;;;;;5005517;28;20049;-88
2023/09/29 06:52:27;;;;;;;20.40;9.80;;;16.20;99.90;;;;;;5001878;28;20057;-88
2023/09/29 06:54:53;;;;;;;12.85;8.55;;;14.70;99.90;;;;;;4988077;28;20068;-89
2023/09/29 06:57:20;;;;;;;17.90;9.20;;;16.20;99.90;;;;;;5005847;28;20155;-89
2023/09/29 06:59:46;;;;;;;13.68;7.88;;;16.20;99.90;;;;;;5005329;28;20618;-89
2023/09/29 07:02:12;;;;;;;12.68;6.97;;;16.20;99.90;;;;;;4998447;28;20048;-88
2023/09/29 07:04:38;;;;;;;17.75;8.65;;;16.20;99.90;;;;;;4987065;28;20037;-88
2023/09/29 07:07:03;;;;;;;13.77;7.43;;;16.20;99.90;;;;;;5005069;28;20037;-88
2023/09/29 07:09:29;;;;;;;14.07;9.13;;;16.30;99.90;;;;;;5004706;28;20107;-86
2023/09/29 07:11:55;;;;;;;11.43;7.40;;;16.30;99.90;;;;;;4988441;28;20042;-88
2023/09/29 07:14:21;;;;;;;16.02;7.22;;;16.30;99.90;;;;;;5004384;28;20056;-88
2023/09/29 07:16:49;;;;;;;10.82;5.93;;;16.40;99.90;;;;;;5003512;28;20459;-89
2023/09/29 07:19:16;;;;;;;12.65;7.05;;;16.40;99.90;;;;;;5002229;28;20713;-87
2023/09/29 07:21:42;;;;;;;14.63;6.93;;;16.50;99.90;;;;;;4986356;28;20474;-88
2023/09/29 07:24:08;;;;;;;15.52;6.38;;;16.50;99.90;;;;;;4999743;28;20048;-89
2023/09/29 07:26:34;;;;;;;12.85;6.13;;;16.60;99.90;;;;;;4985931;28;20042;-88
2023/09/29 07:29:01;;;;;;;14.38;6.68;;;16.70;99.90;;;;;;5004010;28;20697;-86
2023/09/29 07:31:38;;;;;;;9.88;5.90;;;16.80;99.90;;;;;;4985035;28;20038;-87
2023/09/29 07:34:04;;;;;;;13.65;7.18;;;16.90;99.90;;;;;;4982209;28;20061;-88
2023/09/29 07:36:31;;;;;;;10.15;6.07;;;17.00;99.90;;;;;;4989684;28;20053;-88
2023/09/29 07:38:58;;;;;;;9.40;5.88;;;17.00;99.90;;;;;;4986989;28;20046;-88
2023/09/29 07:41:23;;;;;;;11.70;6.18;;;17.10;99.90;;;;;;5000347;28;20148;-88
2023/09/29 07:43:49;;;;;;;9.35;4.68;;;17.20;99.90;;;;;;4997345;28;20041;-85
2023/09/29 07:46:15;;;;;;;10.68;4.90;;;17.30;99.90;;;;;;4983424;28;20033;-86
2023/09/29 07:48:42;;;;;;;8.45;3.90;;;17.40;99.90;;;;;;4984028;28;20051;-87
2023/09/29 07:51:07;;;;;;;7.47;3.17;;;17.50;99.90;;;;;;4981282;28;20045;-85
2023/09/29 07:53:33;;;;;;;10.02;4.18;;;17.50;99.90;;;;;;4999527;28;20541;-86
2023/09/29 07:55:59;;;;;;;10.07;4.10;;;17.60;99.90;;;;;;4984526;28;20132;-85
2023/09/29 07:58:25;;;;;;;7.55;3.53;;;17.60;99.90;;;;;;4990797;28;20053;-86
2023/09/29 08:00:51;;;;;;;7.03;3.55;;;17.70;99.90;;;;;;4979558;28;20037;-86
2023/09/29 08:03:16;;;;;;;9.18;3.58;;;17.80;99.90;;;;;;4996060;28;20033;-86
2023/09/29 08:05:42;;;;;;;7.68;3.20;;;17.90;99.90;;;;;;4980800;28;20748;-83
2023/09/29 08:08:08;;;;;;;7.68;3.30;;;18.10;99.90;;;;;;4979436;28;20049;-85
2023/09/29 08:10:34;;;;;;;7.93;3.30;;;18.10;99.90;;;;;;4980329;28;20049;-85
2023/09/29 08:12:59;;;;;;;9.32;3.13;;;18.60;99.90;;;;;;4998473;28;20045;-86
2023/09/29 08:15:25;;;;;;;9.98;3.42;;;18.90;99.90;;;;;;4998879;28;20045;-84
2023/09/29 08:17:51;;;;;;;9.50;2.88;;;19.10;99.90;;;;;;4974794;28;20045;-86
2023/09/29 08:20:18;;;;;;;5.07;2.65;;;19.20;99.90;;;;;;4981482;28;20037;-85
2023/09/29 08:22:44;;;;;;;6.03;2.47;;;19.40;99.90;;;;;;4981453;28;20038;-86
2023/09/29 08:25:10;;;;;;;5.20;2.40;;;19.50;99.90;;;;;;4975414;28;20165;-84
2023/09/29 08:27:37;;;;;;;6.57;2.72;;;19.60;99.90;;;;;;4989818;28;20037;-85
2023/09/29 08:30:04;;;;;;;8.63;3.13;;;19.70;99.90;;;;;;4977290;28;20037;-85
2023/09/29 08:32:30;;;;;;;5.88;2.58;;;19.80;99.90;;;;;;4997442;28;20226;-86
2023/09/29 08:34:56;;;;;;;4.97;2.20;;;20.10;99.90;;;;;;4996470;28;20049;-85
2023/09/29 08:37:22;;;;;;;5.72;2.10;;;20.40;99.90;;;;;;4980278;28;20156;-84
2023/09/29 08:39:49;;;;;;;5.20;1.90;;;20.60;99.90;;;;;;4981883;28;20120;-84
2023/09/29 08:42:29;;;;;;;6.55;2.83;;;20.70;99.90;;;;;;5000215;28;20053;-86
2023/09/29 08:44:59;;;;;;;6.13;1.75;;;21.80;99.90;;;;;;4981959;28;20041;-85
2023/09/29 08:47:29;;;;;;;4.07;2.03;;;21.20;99.90;;;;;;4997659;28;20041;-85
2023/09/29 08:49:57;;;;;;;5.20;2.30;;;21.30;99.90;;;;;;4975812;28;20078;-85
2023/09/29 08:52:27;;;;;;;6.30;2.00;;;21.30;99.90;;;;;;4995830;28;20064;-85
2023/09/29 08:54:55;;;;;;;5.07;1.73;;;21.30;99.90;;;;;;4993211;28;20053;-85
2023/09/29 08:57:21;;;;;;;6.32;1.90;;;21.30;99.90;;;;;;4982061;28;20052;-85
2023/09/29 08:59:49;;;;;;;4.43;1.75;;;21.40;99.90;;;;;;4978144;28;20042;-85
2023/09/29 09:02:17;;;;;;;9.90;2.55;;;21.50;99.90;;;;;;4996125;28;20045;-86
2023/09/29 09:04:43;;;;;;;5.13;2.00;;;21.70;99.90;;;;;;4977579;28;20063;-85
2023/09/29 09:07:09;;;;;;;5.20;1.60;;;21.90;99.90;;;;;;4980740;28;20038;-84
2023/09/29 09:09:36;;;;;;;5.38;1.85;;;22.00;99.90;;;;;;4982797;28;20095;-85
2023/09/29 09:12:02;;;;;;;4.18;1.95;;;22.10;99.90;;;;;;4982948;28;20045;-86
2023/09/29 09:14:41;;;;;;;6.10;1.98;;;22.20;99.90;;;;;;4996469;28;20569;-85
2023/09/29 09:17:10;;;;;;;7.85;2.00;;;22.30;99.90;;;;;;4982315;28;20033;-86
2023/09/29 09:19:50;;;;;;;7.85;2.72;;;22.30;99.90;;;;;;4981116;28;20050;-85
2023/09/29 09:22:21;;;;;;;5.03;1.83;;;22.40;99.90;;;;;;4979547;28;20034;-85
2023/09/29 09:24:48;;;;;;;4.70;1.58;;;22.50;99.90;;;;;;4987662;28;20912;-86
2023/09/29 09:27:14;;;;;;;4.72;1.35;;;22.70;99.90;;;;;;4982882;28;20049;-85
2023/09/29 09:29:44;;;;;;;4.80;1.20;;;22.80;99.90;;;;;;4979744;28;20056;-85
2023/09/29 09:32:14;;;;;;;6.53;2.15;;;24.00;99.90;;;;;;5000165;28;20065;-85
2023/09/29 09:34:42;;;;;;;3.22;1.25;;;23.20;99.90;;;;;;4975940;28;20161;-84
2023/09/29 09:37:11;;;;;;;5.07;2.05;;;23.20;99.90;;;;;;4968151;28;20084;-86
2023/09/29 09:39:38;;;;;;;2.92;1.15;;;23.20;99.90;;;;;;4956916;28;20048;-87
2023/09/29 09:42:05;;;;;;;4.10;1.50;;;23.20;99.90;;;;;;4981274;28;20448;-87
2023/09/29 09:44:32;;;;;;;3.80;1.77;;;23.30;99.90;;;;;;4985279;28;20045;-86
2023/09/29 09:47:00;;;;;;;6.00;2.20;;;23.40;99.90;;;;;;4965002;28;20106;-86
2023/09/29 09:49:55;;;;;;;2.65;1.17;;;23.30;99.90;;;;;;4961426;28;20044;-87
2023/09/29 09:52:39;;;;;;;3.72;1.40;;;23.30;99.90;;;;;;4939258;28;20046;-87
2023/09/29 09:55:13;;;;;;;5.22;1.63;;;23.40;99.90;;;;;;4963533;28;20050;-86
2023/09/29 09:57:43;;;;;;;3.92;1.23;;;23.30;99.90;;;;;;4950851;28;20128;-86
2023/09/29 10:00:12;;;;;;;5.28;2.08;;;23.20;99.90;;;;;;4954035;28;20397;-87
2023/09/29 10:02:47;;;;;;;7.57;1.90;;;22.60;99.90;;;;;;4975655;28;20037;-87
2023/09/29 10:05:30;;;;;;;4.90;1.50;;;22.90;99.90;;;;;;4975078;28;20128;-87
2023/09/29 10:08:00;;;;;;;3.65;1.50;;;22.90;99.90;;;;;;4974271;28;20034;-84
2023/09/29 10:10:40;;;;;;;4.25;1.40;;;23.00;99.90;;;;;;4956133;28;20711;-86
2023/09/29 10:13:15;;;;;;;5.55;1.67;;;23.20;99.90;;;;;;4990293;28;20748;-86
2023/09/29 10:15:54;;;;;;;5.30;2.13;;;23.10;99.90;;;;;;4951376;28;20038;-86
2023/09/29 10:18:21;;;;;;;3.78;1.27;;;23.20;99.90;;;;;;4956469;28;20046;-87
2023/09/29 10:21:00;;;;;;;4.80;1.25;;;23.20;99.90;;;;;;4958629;28;20033;-86
2023/09/29 10:23:27;;;;;;;5.07;1.60;;;23.30;99.90;;;;;;4971291;28;20095;-86
2023/09/29 10:25:58;;;;;;;4.40;1.80;;;23.20;99.90;;;;;;4959590;28;20128;-86
2023/09/29 10:28:35;;;;;;;8.15;1.77;;;26.10;99.90;;;;;;4971523;28;20049;-86
2023/09/29 10:31:17;;;;;;;9.73;2.00;;;23.20;99.90;;;;;;4957312;28;20592;-86
2023/09/29 10:34:03;;;;;;;4.43;1.80;;;22.20;99.90;;;;;;4977802;28;20778;-85
2023/09/29 10:36:32;;;;;;;5.15;1.52;;;23.10;99.90;;;;;;4990679;28;20049;-85
2023/09/29 10:38:59;;;;;;;6.22;2.00;;;22.80;99.90;;;;;;4992456;28;20141;-86
2023/09/29 10:41:28;;;;;;;4.82;1.30;;;23.30;99.90;;;;;;4995475;28;20774;-88
2023/09/29 10:43:59;;;;;;;5.03;1.75;;;22.80;99.90;;;;;;5009313;28;20703;-87
2023/09/29 10:46:25;;;;;;;;;;;22.50;99.90;;;;;;4994690;28;20723;-87
2023/09/29 10:48:53;;;;;;;6.15;1.63;;;22.30;99.90;;;;;;4992848;28;19927;-86
2023/09/29 10:51:24;;;;;;;6.18;1.88;;;22.10;99.90;;;;;;4992042;28;20144;-86
2023/09/29 10:53:50;;;;;;;3.90;1.70;;;22.10;99.90;;;;;;4978034;28;20046;-86
2023/09/29 10:56:25;;;;;;;7.00;1.60;;;22.90;99.90;;;;;;4993424;28;20148;-86
2023/09/29 10:58:52;;;;;;;6.30;1.88;;;21.60;99.90;;;;;;4995048;28;20046;-85
2023/09/29 11:01:25;;;;;;;5.15;1.80;;;21.50;99.90;;;;;;5003613;28;20041;-86
2023/09/29 11:03:51;;;;;;;6.00;1.80;;;21.30;99.90;;;;;;5005323;28;20674;-85
2023/09/29 11:06:20;;;;;;;5.07;1.92;;;23.50;99.90;;;;;;4978437;28;20061;-85
2023/09/29 11:08:58;;;;;;;4.28;1.90;;;21.20;99.90;;;;;;4989026;28;20036;-84
2023/09/29 11:11:35;;;;;;;4.97;1.55;;;21.10;99.90;;;;;;4987077;28;20140;-85
2023/09/29 11:14:04;;;;;;;6.00;2.00;;;21.20;99.90;;;;;;4984010;28;20026;-85
2023/09/29 11:16:31;;;;;;;4.93;2.50;;;21.20;99.90;;;;;;4979968;28;20052;-85
2023/09/29 11:19:15;;;;;;;6.47;2.38;;;21.20;99.90;;;;;;5008893;28;20052;-85
2023/09/29 11:21:41;;;;;;;4.53;1.92;;;21.20;99.90;;;;;;5009132;28;20034;-84
2023/09/29 11:24:13;;;;;;;4.40;1.95;;;21.70;99.90;;;;;;4985521;28;20072;-84
2023/09/29 11:26:46;;;;;;;3.78;1.70;;;21.00;99.90;;;;;;4988275;28;20038;-84
2023/09/29 11:29:27;;;;;;;6.35;3.13;;;20.90;99.90;;;;;;4991305;28;20049;-83
2023/09/29 11:31:54;;;;;;;8.40;2.55;;;20.90;99.90;;;;;;4992050;28;20049;-84
2023/09/29 11:34:31;;;;;;;6.82;2.60;;;20.80;99.90;;;;;;5008045;28;20057;-85
2023/09/29 11:36:57;;;;;;;6.05;2.20;;;20.10;99.90;;;;;;4989185;28;20343;-85
2023/09/29 11:39:23;;;;;;;8.13;2.80;;;21.00;99.90;;;;;;5008395;28;20559;-85
2023/09/29 11:41:49;;;;;;;4.78;2.05;;;24.10;99.90;;;;;;5011643;28;20053;-83
2023/09/29 11:44:16;;;;;;;3.58;1.75;;;21.20;99.90;;;;;;5009894;28;20048;-83
2023/09/29 11:46:42;;;;;;;7.32;2.50;;;21.50;99.90;;;;;;4994818;28;20854;-84
2023/09/29 11:49:08;;;;;;;5.95;2.47;;;21.50;99.90;;;;;;4990808;28;21508;-85
2023/09/29 11:51:34;;;;;;;8.07;2.35;;;21.20;99.90;;;;;;5010439;28;20045;-85
2023/09/29 11:54:04;;;;;;;6.22;2.50;;;21.30;99.90;;;;;;4978759;28;20735;-85
2023/09/29 11:56:30;;;;;;;5.40;2.00;;;21.40;99.90;;;;;;4980831;28;20049;-87
2023/09/29 11:58:55;;;;;;;6.60;2.20;;;21.00;99.90;;;;;;4979990;28;21051;-84
2023/09/29 12:01:21;;;;;;;7.60;2.22;;;20.90;99.90;;;;;;4977905;28;20064;-84
2023/09/29 12:03:47;;;;;;;4.90;2.22;;;20.80;99.90;;;;;;4977873;28;20037;-83
2023/09/29 12:06:13;;;;;;;10.10;3.60;;;20.70;99.90;;;;;;4978280;28;20038;-82
2023/09/29 12:08:41;;;;;;;5.43;2.78;;;20.70;99.90;;;;;;4986196;28;20703;-82
2023/09/29 12:11:10;;;;;;;11.05;3.00;;;20.60;99.90;;;;;;4994498;28;20869;-83
2023/09/29 12:13:39;;;;;;;7.90;3.15;;;20.60;99.90;;;;;;5007132;28;20369;-85
2023/09/29 12:16:08;;;;;;;7.88;2.58;;;19.00;99.90;;;;;;4975138;28;20037;-83
2023/09/29 12:18:42;;;;;;;5.97;3.15;;;20.60;99.90;;;;;;5010479;28;20049;-83
2023/09/29 12:21:14;;;;;;;6.47;2.72;;;23.10;99.90;;;;;;4987845;28;20044;-83
2023/09/29 12:23:43;;;;;;;;;;;20.80;99.90;;;;;;4988723;28;20074;-83
2023/09/29 12:26:15;;;;;;;5.25;2.50;;;18.90;99.90;;;;;;4992974;28;20011;-83
2023/09/29 12:28:44;;;;;;;6.82;3.92;;;20.70;99.90;;;;;;4983472;28;20038;-83
2023/09/29 12:31:15;;;;;;;7.65;3.40;;;21.30;99.90;;;;;;4988607;28;20037;-86
2023/09/29 12:33:47;;;;;;;11.88;3.42;;;20.90;99.90;;;;;;5006933;28;20094;-89
2023/09/29 12:36:16;;;;;;;8.77;3.78;;;19.60;99.90;;;;;;5006888;28;20064;-88
2023/09/29 12:38:45;;;;;;;7.72;3.92;;;21.40;99.90;;;;;;4988975;28;20033;-91
2023/09/29 12:41:13;;;;;;;9.73;3.20;;;22.90;99.90;;;;;;4998801;28;20034;-88
2023/09/29 12:43:48;;;;;;;8.85;4.45;;;21.30;99.90;;;;;;4989565;28;20399;-89
2023/09/29 12:46:13;;;;;;;7.35;3.70;;;19.20;99.90;;;;;;4981727;28;20033;-87